Flight Track Log - Related Links

Times and Time Zones

All times are in EDT time to prevent confusion due to time zone crossing. See the WBR2634 flight status page for this flight to view local times or setup timezone preferences in your user account.

Time Position Orientation Groundspeed Altitude Reporting Facility
EDT Latitude Longitude Course Direction KTS MPH feet Rate Location/Type
Fri 05:44:37 PM 40.7839 -91.0564 70° East 90 104 2,900  Level Chicago Center
Fri 05:45:39 PM 40.7958 -91.0139 70° East 122 140 4,000 1,065 Climbing Chicago Center
Fri 05:46:41 PM 40.8039 -90.9628 78° East 120 138 5,100 871 Climbing Chicago Center
Fri 05:47:43 PM 40.8169 -90.9169 69° East 126 145 5,800 774 Climbing Chicago Center
Fri 05:48:45 PM 40.8292 -90.8694 71° East 134 154 6,700 774 Climbing Chicago Center
Fri 05:49:47 PM 40.8408 -90.8225 72° East 134 154 7,400 629 Climbing Chicago Center
Fri 05:50:49 PM 40.8519 -90.7731 73° East 137 158 8,000 581 Climbing Chicago Center
Fri 05:51:51 PM 40.8675 -90.7203 69° East 149 171 8,600 532 Climbing Chicago Center
Fri 05:52:53 PM 40.8828 -90.6583 72° East 148 170 9,100 242 Climbing Chicago Center
Fri 05:53:55 PM 40.8983 -90.6044 69° East 156 180 9,100  Level Chicago Center
Fri 05:54:58 PM 40.9125 -90.5497 71° East 157 181 9,100 48 Level Chicago Center
Fri 05:56:00 PM 40.9278 -90.4958 69° East 156 180 9,200  Climbing Chicago Center
Fri 05:57:02 PM 40.9447 -90.4394 68° East 162 186 9,100 -48 Descending Chicago Center
Fri 05:58:04 PM 40.9603 -90.3833 70° East 161 185 9,100  Level Chicago Center
Fri 05:59:06 PM 40.9731 -90.3267 73° East 161 185 9,100  Level Chicago Center
Fri 06:00:08 PM 40.9889 -90.2600 73° East 160 184 9,100  Level Chicago Center
Fri 06:01:10 PM 41.0039 -90.2039 70° East 160 184 9,100 -48 Level Chicago Center
Fri 06:02:12 PM 41.0181 -90.1475 72° East 161 185 9,000 -48 Descending Chicago Center
Fri 06:03:14 PM 41.0322 -90.0917 71° East 160 184 9,000  Level Chicago Center
Fri 06:04:16 PM 41.0492 -90.0358 68° East 162 186 9,000  Level Chicago Center
Fri 06:05:18 PM 41.0683 -89.9811 65° Northeast 163 188 9,000  Level Chicago Center
Fri 06:06:20 PM 41.0822 -89.9225 73° East 165 190 9,000 48 Level Chicago Center
Fri 06:07:22 PM 41.0983 -89.8531 73° East 164 189 9,100  Climbing Chicago Center
Fri 06:08:24 PM 41.1133 -89.7950 71° East 165 190 9,000  Descending Chicago Center
Fri 06:09:27 PM 41.1267 -89.7347 74° East 168 193 9,100  Climbing Chicago Center
Fri 06:10:29 PM 41.1414 -89.6781 71° East 165 190 9,000 -48 Descending Chicago Center
Fri 06:11:31 PM 41.1567 -89.6206 71° East 164 189 9,000  Level Chicago Center
Fri 06:12:33 PM 41.1756 -89.5644 66° East 165 190 9,000 48 Level Chicago Center
Fri 06:13:35 PM 41.2072 -89.5050 55° Northeast 165 190 9,100  Climbing Chicago Center
Fri 06:14:37 PM 41.2306 -89.4514 60° Northeast 166 191 9,000 -48 Descending Chicago Center
Fri 06:15:39 PM 41.2531 -89.3975 61° Northeast 166 191 9,000  Level Chicago Center
Fri 06:16:41 PM 41.2756 -89.3408 62° Northeast 170 196 9,000 48 Level Chicago Center
Fri 06:17:43 PM 41.2981 -89.2853 62° Northeast 171 197 9,100  Climbing Chicago Center
Fri 06:18:45 PM 41.3231 -89.2314 58° Northeast 171 197 9,000 -48 Descending Chicago Center
Fri 06:19:47 PM 41.3503 -89.1739 58° Northeast 174 200 9,000 48 Level Chicago Center
Fri 06:20:49 PM 41.3817 -89.1108 56° Northeast 172 198 9,100 48 Climbing Chicago Center
Fri 06:21:51 PM 41.4058 -89.0539 60° Northeast 176 203 9,100  Level Chicago Center
Fri 06:22:53 PM 41.4350 -88.9992 55° Northeast 182 209 9,100 -48 Level Chicago Center
Fri 06:23:56 PM 41.4631 -88.9450 55° Northeast 181 208 9,000 -48 Descending Chicago Center
Fri 06:24:58 PM 41.4878 -88.8867 60° Northeast 183 211 9,000 -145 Level Chicago Center
Fri 06:26:00 PM 41.5144 -88.8300 58° Northeast 183 211 8,700 -435 Descending Chicago Center
Fri 06:27:02 PM 41.5475 -88.7600 58° Northeast 185 213 8,100 -339 Descending Chicago Center
Fri 06:28:04 PM 41.5758 -88.7022 57° Northeast 187 215 8,000 -48 Descending Chicago Center
Fri 06:29:06 PM 41.6003 -88.6453 60° Northeast 182 209 8,000 48 Level Chicago Center
Fri 06:30:08 PM 41.6281 -88.5906 56° Northeast 178 205 8,100 48 Climbing Chicago Center
Fri 06:31:10 PM 41.6569 -88.5369 54° Northeast 178 205 8,100 -194 Level Chicago Center
Fri 06:32:12 PM 41.6939 -88.4714 53° Northeast 183 211 7,700 -435 Descending Chicago Center
Fri 06:33:14 PM 41.7203 -88.4142 58° Northeast 181 208 7,200 -339 Descending Chicago Center
Fri 06:34:16 PM 41.7461 -88.3556 59° Northeast 183 211 7,000 -48 Descending Chicago Center
Fri 06:35:18 PM 41.7747 -88.3000 55° Northeast 181 208 7,100 48 Climbing Chicago Center
Fri 06:36:20 PM 41.8028 -88.2458 55° Northeast 180 207 7,100 -48 Level Chicago Center
Fri 06:37:22 PM 41.8331 -88.1919 53° Northeast 180 207 7,000  Descending Chicago Center
Fri 06:38:25 PM 41.8669 -88.1264 55° Northeast 180 207 7,100 69 Climbing Chicago Center
Fri 06:38:49 PM 41.8833 -88.1167 24° Northeast 182 209 7,100 -71 Level Chicago TRACON
Fri 06:39:49 PM 41.9333 -88.1333 346° North 180 207 7,000  Descending Chicago TRACON
Fri 06:40:29 PM 41.9644 -88.1303 North 179 206 7,100 -235 Climbing Chicago Center
Fri 06:41:31 PM 42.0131 -88.1308 360° North 175 201 6,600 -629 Descending Chicago Center
Fri 06:42:33 PM 42.0606 -88.1328 358° North 173 199 5,800 -1,065 Descending Chicago Center
Fri 06:43:35 PM 42.1131 -88.1147 14° North 170 196 4,400 -1,210 Descending Chicago Center
Fri 06:44:37 PM 42.1047 -88.0631 102° East 160 184 3,300 -726 Descending Chicago Center
Fri 06:45:39 PM 42.0728 -88.0269 140° Southeast 154 177 2,900 -677 Descending Chicago Center
Fri 06:46:41 PM 42.0375 -87.9897 142° Southeast 156 180 1,900 -629 Descending Chicago Center
Fri 06:47:43 PM 42.0058 -87.9536 140° Southeast 158 182 1,600 -290 Descending Chicago Center
Fri 06:49:00 PM 41.9817 -87.9067 140° Southeast  Level Estimated

Login

Don't have an account? Register now (free) for customized features, flight alerts, and more!